Time;durP1;ratioP1;P1;durP2;ratioP2;P2;SDS_P1;SDS_P2;PMS_P1;PMS_P2;Temp;Humidity;BMP_temperature;BMP_pressure;BME280_temperature;BME280_humidity;BME280_pressure;Samples;Min_cycle;Max_cycle;Signal;HPM_P1;HPM_P2
2023/01/27 00:00:40;;;;;;;21.08;9.43;;;4.20;99.90;;;;;;5030429;28;20685;-70
2023/01/27 00:03:09;;;;;;;20.67;8.55;;;4.20;99.90;;;;;;5019106;28;20037;-71
2023/01/27 00:05:34;;;;;;;13.13;8.75;;;4.20;99.90;;;;;;5017729;28;20041;-70
2023/01/27 00:08:00;;;;;;;18.60;9.00;;;4.20;99.90;;;;;;5032836;28;20053;-71
2023/01/27 00:10:26;;;;;;;15.23;8.85;;;4.20;99.90;;;;;;5035476;28;20044;-71
2023/01/27 00:15:36;;;;;;;16.33;8.40;;;4.20;99.90;;;;;;5035670;28;20084;-70
2023/01/27 00:18:03;;;;;;;15.57;8.85;;;4.20;99.90;;;;;;5014947;28;20087;-70
2023/01/27 00:26:18;;;;;;;18.55;8.90;;;4.20;99.90;;;;;;5040239;28;20036;-70
2023/01/27 00:28:46;;;;;;;20.75;9.90;;;4.10;99.90;;;;;;5033461;28;20049;-70
2023/01/27 00:34:07;;;;;;;19.17;9.48;;;4.20;99.90;;;;;;5029342;28;20076;-70
2023/01/27 00:36:35;;;;;;;20.45;10.02;;;4.10;99.90;;;;;;5034323;28;20055;-70
2023/01/27 00:39:01;;;;;;;17.02;9.07;;;4.00;99.90;;;;;;5035626;28;20044;-70
2023/01/27 00:41:27;;;;;;;21.20;9.60;;;4.10;99.90;;;;;;5032938;28;20045;-70
2023/01/27 00:43:54;;;;;;;24.38;9.98;;;4.00;99.90;;;;;;5022461;28;20579;-70
2023/01/27 00:46:22;;;;;;;13.18;8.35;;;4.00;99.90;;;;;;5026283;28;20045;-71
2023/01/27 00:48:48;;;;;;;15.48;8.15;;;4.00;99.90;;;;;;5031533;28;20040;-72
2023/01/27 00:51:14;;;;;;;17.38;8.77;;;4.10;99.90;;;;;;5034699;28;20110;-71
2023/01/27 00:53:40;;;;;;;16.98;8.20;;;4.30;99.90;;;;;;5018779;28;20049;-70
2023/01/27 00:56:07;;;;;;;15.98;8.45;;;4.10;99.90;;;;;;5031385;28;20499;-71
2023/01/27 00:58:33;;;;;;;19.00;7.65;;;4.00;99.90;;;;;;5039934;28;20386;-71
2023/01/27 01:01:02;;;;;;;18.20;8.30;;;4.00;99.90;;;;;;5025711;28;20073;-71
2023/01/27 01:03:30;;;;;;;12.70;7.10;;;4.00;99.90;;;;;;5033319;28;20049;-71
2023/01/27 01:06:04;;;;;;;11.90;6.32;;;3.90;99.90;;;;;;5027389;28;20072;-71
2023/01/27 01:08:31;;;;;;;13.57;6.30;;;4.00;99.90;;;;;;5035046;28;20041;-71
2023/01/27 01:10:57;;;;;;;11.30;6.47;;;3.90;99.90;;;;;;5039732;28;20045;-71
2023/01/27 01:13:23;;;;;;;17.60;6.65;;;3.90;99.90;;;;;;5033011;28;20562;-71
2023/01/27 01:15:49;;;;;;;16.67;6.35;;;4.00;99.90;;;;;;5032253;28;20152;-71
2023/01/27 01:18:15;;;;;;;12.70;5.82;;;4.00;99.90;;;;;;5029760;28;20191;-71
2023/01/27 01:20:45;;;;;;;12.73;6.57;;;3.90;99.90;;;;;;5031023;28;20102;-71
2023/01/27 01:23:12;;;;;;;11.18;5.90;;;3.90;99.90;;;;;;5018559;28;20039;-71
2023/01/27 01:25:38;;;;;;;13.05;5.80;;;3.90;99.90;;;;;;5009403;28;20041;-71
2023/01/27 01:28:05;;;;;;;12.45;5.72;;;4.10;99.90;;;;;;5016598;28;20107;-71
2023/01/27 01:30:34;;;;;;;12.98;6.05;;;3.90;99.90;;;;;;5023212;28;20061;-71
2023/01/27 01:32:59;;;;;;;17.38;6.15;;;3.90;99.90;;;;;;5027914;28;20077;-71
2023/01/27 01:35:25;;;;;;;12.65;5.43;;;3.90;99.90;;;;;;5026882;28;20083;-71
2023/01/27 01:37:52;;;;;;;14.82;5.53;;;3.90;99.90;;;;;;5031824;28;20045;-71
2023/01/27 01:40:18;;;;;;;11.05;6.22;;;4.30;99.90;;;;;;5040942;28;20120;-71
2023/01/27 01:42:52;;;;;;;11.20;6.03;;;3.90;99.90;;;;;;5020756;28;20120;-71
2023/01/27 01:45:35;;;;;;;16.80;6.07;;;3.90;99.90;;;;;;5030301;28;20041;-70
2023/01/27 01:48:24;;;;;;;11.95;5.65;;;3.90;99.90;;;;;;5028168;28;20064;-71
2023/01/27 01:50:57;;;;;;;13.85;5.78;;;3.90;99.90;;;;;;5038821;28;20664;-72
2023/01/27 01:53:30;;;;;;;9.98;5.18;;;3.90;99.90;;;;;;5023401;28;20056;-70
2023/01/27 01:56:05;;;;;;;9.82;4.70;;;3.90;99.90;;;;;;5027196;28;20438;-71
2023/01/27 01:58:32;;;;;;;12.45;5.10;;;3.90;99.90;;;;;;5036143;28;20049;-70
2023/01/27 02:00:58;;;;;;;16.05;5.53;;;3.90;99.90;;;;;;5030735;28;20037;-71
2023/01/27 02:03:27;;;;;;;10.77;4.82;;;3.90;99.90;;;;;;5029392;28;20056;-71
2023/01/27 02:05:54;;;;;;;13.68;4.82;;;3.90;99.90;;;;;;5035448;28;20049;-71
2023/01/27 02:08:33;;;;;;;10.20;4.75;;;3.90;99.90;;;;;;5032132;28;20521;-70
2023/01/27 02:10:59;;;;;;;12.80;5.07;;;3.90;99.90;;;;;;5054419;28;20037;-71
2023/01/27 02:13:25;;;;;;;13.32;4.72;;;3.90;99.90;;;;;;5039978;28;20045;-71
2023/01/27 02:15:53;;;;;;;11.75;5.10;;;3.90;99.90;;;;;;5037282;28;20045;-71
2023/01/27 02:18:19;;;;;;;12.23;5.20;;;4.20;99.90;;;;;;5033711;28;20549;-72
2023/01/27 02:20:52;;;;;;;13.68;5.38;;;3.90;99.90;;;;;;5029030;28;20606;-71
2023/01/27 02:23:27;;;;;;;15.85;4.65;;;4.00;99.90;;;;;;5031387;28;20038;-70
2023/01/27 02:26:15;;;;;;;11.52;4.60;;;3.90;99.90;;;;;;5032067;28;20579;-70
2023/01/27 02:28:41;;;;;;;9.63;4.22;;;3.90;99.90;;;;;;5029495;28;20227;-75
2023/01/27 02:31:07;;;;;;;12.27;3.72;;;3.90;99.90;;;;;;5038437;28;20110;-74
2023/01/27 02:33:33;;;;;;;10.00;3.33;;;3.90;99.90;;;;;;5038476;28;20040;-74
2023/01/27 02:36:05;;;;;;;9.90;2.78;;;3.90;99.90;;;;;;5039061;28;20048;-74
2023/01/27 02:38:48;;;;;;;10.65;2.78;;;3.90;99.90;;;;;;5040644;28;20059;-74
2023/01/27 02:41:17;;;;;;;6.95;2.08;;;4.10;99.90;;;;;;5030306;28;20048;-74
2023/01/27 02:43:43;;;;;;;8.02;2.30;;;4.20;99.90;;;;;;5032221;28;20041;-74
2023/01/27 02:46:08;;;;;;;6.32;1.80;;;3.90;99.90;;;;;;5036192;28;20497;-74
2023/01/27 02:48:34;;;;;;;9.10;2.10;;;4.60;99.90;;;;;;5026902;28;20059;-74
2023/01/27 02:51:00;;;;;;;7.80;2.00;;;3.90;99.90;;;;;;5042110;28;20040;-74
2023/01/27 02:53:25;;;;;;;8.70;1.70;;;3.90;99.90;;;;;;5037364;28;20045;-73
2023/01/27 02:55:51;;;;;;;7.32;2.05;;;3.90;99.90;;;;;;5024447;28;20056;-74
2023/01/27 02:58:17;;;;;;;5.45;1.65;;;3.90;99.90;;;;;;5033947;28;20041;-73
2023/01/27 03:00:43;;;;;;;3.97;1.38;;;3.90;99.90;;;;;;5039914;28;20446;-74
2023/01/27 03:03:09;;;;;;;8.25;1.75;;;4.00;99.90;;;;;;5013185;28;20038;-74
2023/01/27 03:05:35;;;;;;;3.50;1.40;;;3.90;99.90;;;;;;5037638;28;20049;-73
2023/01/27 03:08:00;;;;;;;4.40;1.40;;;3.90;99.90;;;;;;5039364;28;20033;-74
2023/01/27 03:10:26;;;;;;;8.27;1.83;;;3.90;99.90;;;;;;5036739;28;20030;-74
2023/01/27 03:12:52;;;;;;;8.73;1.63;;;3.90;99.90;;;;;;5035282;28;20060;-75
2023/01/27 03:18:12;;;;;;;6.22;1.80;;;3.90;99.90;;;;;;5036324;28;20158;-74
2023/01/27 03:20:46;;;;;;;5.70;1.42;;;3.90;99.90;;;;;;5013186;28;20103;-75
2023/01/27 03:23:13;;;;;;;5.90;1.25;;;3.90;99.90;;;;;;5034249;28;20037;-73
2023/01/27 03:25:43;;;;;;;6.88;1.60;;;3.90;99.90;;;;;;5031235;28;20108;-74
2023/01/27 03:28:10;;;;;;;6.40;1.27;;;3.90;99.90;;;;;;5038875;28;20037;-74
2023/01/27 03:30:36;;;;;;;3.75;1.48;;;3.90;99.90;;;;;;5035727;28;20052;-74
2023/01/27 03:33:05;;;;;;;6.15;1.20;;;4.20;99.90;;;;;;5027859;28;20079;-74
2023/01/27 03:35:37;;;;;;;7.95;2.38;;;3.80;99.90;;;;;;5033072;28;20136;-74
2023/01/27 03:46:19;;;;;;;4.07;1.48;;;3.80;99.90;;;;;;5030670;28;20048;-74
2023/01/27 03:48:53;;;;;;;7.30;1.30;;;3.80;99.90;;;;;;5035827;28;20049;-73
2023/01/27 03:51:21;;;;;;;5.95;1.38;;;3.80;99.90;;;;;;5037289;28;20162;-74
2023/01/27 03:53:47;;;;;;;5.25;1.20;;;3.80;99.90;;;;;;5013873;28;20521;-74
2023/01/27 03:56:15;;;;;;;3.28;1.10;;;3.80;99.90;;;;;;5037753;28;20040;-74
2023/01/27 03:58:41;;;;;;;4.68;1.10;;;3.80;99.90;;;;;;5040671;28;20735;-74
2023/01/27 04:01:13;;;;;;;6.07;1.13;;;4.10;99.90;;;;;;5036108;28;20049;-74
2023/01/27 04:09:11;;;;;;;4.72;1.40;;;3.70;99.90;;;;;;5035499;28;20135;-74
2023/01/27 04:11:55;;;;;;;4.90;1.02;;;3.70;99.90;;;;;;5032211;28;20081;-74
2023/01/27 04:14:29;;;;;;;6.97;1.60;;;3.60;99.90;;;;;;5033010;28;20061;-74
2023/01/27 04:17:05;;;;;;;3.85;1.00;;;4.40;99.90;;;;;;5032258;28;20437;-74
2023/01/27 04:19:31;;;;;;;6.65;1.17;;;3.60;99.90;;;;;;5033634;28;20041;-74
2023/01/27 04:21:58;;;;;;;6.05;0.93;;;3.60;99.90;;;;;;5017744;28;20044;-74
2023/01/27 04:24:24;;;;;;;3.95;1.10;;;3.60;99.90;;;;;;5036559;28;20041;-74
2023/01/27 04:26:53;;;;;;;5.32;1.23;;;3.60;99.90;;;;;;5031051;28;20120;-75
2023/01/27 04:29:20;;;;;;;6.20;1.10;;;3.70;99.90;;;;;;5016334;28;20072;-73
2023/01/27 04:31:46;;;;;;;4.88;1.05;;;3.60;99.90;;;;;;5034648;28;20053;-74
2023/01/27 04:34:12;;;;;;;2.92;1.05;;;3.60;99.90;;;;;;5036754;28;20044;-74
2023/01/27 04:36:39;;;;;;;5.85;1.30;;;3.60;99.90;;;;;;5035577;28;20483;-74
2023/01/27 04:39:05;;;;;;;7.35;1.33;;;3.60;99.90;;;;;;5025795;28;20405;-74
2023/01/27 04:41:30;;;;;;;7.95;1.30;;;3.60;99.90;;;;;;5038571;28;20045;-74
2023/01/27 04:43:56;;;;;;;6.72;1.23;;;3.60;99.90;;;;;;5034662;28;20486;-74
2023/01/27 04:46:22;;;;;;;6.13;1.48;;;3.60;99.90;;;;;;5034719;28;20081;-74
2023/01/27 04:48:48;;;;;;;8.63;1.80;;;3.60;99.90;;;;;;5035362;28;20051;-74
2023/01/27 04:51:14;;;;;;;3.78;1.30;;;3.60;99.90;;;;;;5032967;28;20040;-73
2023/01/27 04:53:39;;;;;;;6.53;1.20;;;3.60;99.90;;;;;;5017923;28;20045;-74
2023/01/27 04:56:19;;;;;;;6.28;1.40;;;3.50;99.90;;;;;;5019121;28;20124;-74
2023/01/27 04:58:45;;;;;;;6.53;1.30;;;3.50;99.90;;;;;;5015588;28;20110;-74
2023/01/27 05:01:10;;;;;;;5.93;1.60;;;3.50;99.90;;;;;;5033368;28;20124;-74
2023/01/27 05:03:36;;;;;;;5.10;1.05;;;3.90;99.90;;;;;;5034433;28;20290;-74
2023/01/27 05:06:03;;;;;;;5.07;1.20;;;3.50;99.90;;;;;;5034433;28;20055;-74
2023/01/27 05:08:29;;;;;;;3.95;1.25;;;3.50;99.90;;;;;;5014246;28;20124;-74
2023/01/27 05:10:55;;;;;;;4.57;1.10;;;3.50;99.90;;;;;;5035195;28;20566;-73
2023/01/27 05:13:21;;;;;;;2.85;1.10;;;3.50;99.90;;;;;;5031934;28;20053;-74
2023/01/27 05:15:47;;;;;;;8.65;1.25;;;3.50;99.90;;;;;;5031519;28;20103;-74
2023/01/27 05:18:13;;;;;;;4.18;1.20;;;3.80;99.90;;;;;;5033810;28;20071;-74
2023/01/27 05:20:39;;;;;;;6.90;1.20;;;3.50;99.90;;;;;;5037066;28;20059;-74
2023/01/27 05:25:48;;;;;;;7.15;1.35;;;3.40;99.90;;;;;;5028348;28;20080;-74
2023/01/27 05:28:14;;;;;;;9.40;1.40;;;3.50;99.90;;;;;;5028655;28;20050;-74
2023/01/27 05:30:40;;;;;;;6.68;1.70;;;3.40;99.90;;;;;;5038533;28;20079;-73
2023/01/27 05:33:07;;;;;;;5.13;1.38;;;3.50;99.90;;;;;;5034554;28;20049;-73
2023/01/27 05:35:33;;;;;;;5.65;1.30;;;3.40;99.90;;;;;;5025978;28;20081;-73
2023/01/27 05:37:59;;;;;;;6.05;1.48;;;3.40;99.90;;;;;;5036087;28;20124;-73
2023/01/27 05:40:26;;;;;;;3.95;1.60;;;3.40;99.90;;;;;;5017723;28;20109;-74
2023/01/27 05:42:52;;;;;;;7.40;1.60;;;3.40;99.90;;;;;;5015270;28;20127;-73
2023/01/27 05:45:18;;;;;;;8.50;1.60;;;3.60;99.90;;;;;;5036458;28;20033;-73
2023/01/27 05:47:49;;;;;;;6.65;1.70;;;3.40;99.90;;;;;;5026177;28;20052;-73
2023/01/27 05:50:15;;;;;;;4.60;1.45;;;3.40;99.90;;;;;;5037542;28;20043;-74
2023/01/27 05:52:41;;;;;;;6.28;1.75;;;3.40;99.90;;;;;;5036976;28;20140;-73
2023/01/27 05:55:07;;;;;;;2.83;1.30;;;4.30;99.90;;;;;;5024350;28;20041;-73
2023/01/27 05:57:35;;;;;;;6.97;1.50;;;3.40;99.90;;;;;;5017304;28;20056;-73
2023/01/27 06:00:01;;;;;;;5.60;1.35;;;3.40;99.90;;;;;;5037635;28;20041;-74
2023/01/27 06:02:27;;;;;;;5.55;1.60;;;3.40;99.90;;;;;;5039977;28;20517;-73
2023/01/27 06:04:53;;;;;;;5.10;1.50;;;4.30;99.90;;;;;;5029890;28;20097;-74
2023/01/27 06:07:18;;;;;;;5.30;1.42;;;3.50;99.90;;;;;;5030639;28;20048;-73
2023/01/27 06:09:44;;;;;;;5.38;1.58;;;3.40;99.90;;;;;;5016765;28;20127;-73
2023/01/27 06:12:10;;;;;;;6.45;1.40;;;3.40;99.90;;;;;;5047268;28;20064;-74
2023/01/27 06:14:35;;;;;;;4.47;1.20;;;3.40;99.90;;;;;;5022307;28;20128;-73
2023/01/27 06:17:01;;;;;;;5.93;1.33;;;3.40;99.90;;;;;;5059382;28;20050;-74
2023/01/27 06:19:27;;;;;;;5.53;1.35;;;3.50;99.90;;;;;;5040809;28;20040;-74
2023/01/27 06:21:53;;;;;;;6.03;1.30;;;3.40;99.90;;;;;;5043699;28;20052;-73
2023/01/27 06:24:18;;;;;;;7.50;1.60;;;3.40;99.90;;;;;;5037165;28;20048;-74
2023/01/27 06:26:44;;;;;;;5.47;1.63;;;3.40;99.90;;;;;;5042753;28;20049;-74
2023/01/27 06:29:10;;;;;;;5.95;1.33;;;3.40;99.90;;;;;;5044121;28;20094;-72
2023/01/27 06:31:35;;;;;;;3.63;1.25;;;3.40;99.90;;;;;;5042933;28;20079;-73
2023/01/27 06:34:01;;;;;;;4.28;1.30;;;3.40;99.90;;;;;;5026456;28;20048;-72
2023/01/27 06:36:26;;;;;;;5.82;1.33;;;3.40;99.90;;;;;;5027127;28;20049;-73
2023/01/27 06:38:52;;;;;;;5.75;1.58;;;3.40;99.90;;;;;;5042586;28;20040;-73
2023/01/27 06:41:18;;;;;;;7.07;1.23;;;3.30;99.90;;;;;;5053406;28;20045;-73
2023/01/27 06:43:44;;;;;;;6.90;1.35;;;3.40;99.90;;;;;;5021954;28;20049;-73
2023/01/27 06:46:10;;;;;;;5.00;1.20;;;3.30;99.90;;;;;;5038310;28;20044;-74
2023/01/27 06:48:36;;;;;;;5.68;1.30;;;3.30;99.90;;;;;;5041758;28;20032;-73
2023/01/27 06:51:03;;;;;;;3.17;1.27;;;3.30;99.90;;;;;;5041873;28;20449;-73
2023/01/27 06:53:30;;;;;;;4.93;1.25;;;3.30;99.90;;;;;;5057977;28;20048;-74
2023/01/27 06:55:57;;;;;;;5.30;1.30;;;3.30;99.90;;;;;;5024947;28;20669;-74
2023/01/27 06:58:23;;;;;;;6.95;1.30;;;3.30;99.90;;;;;;5042500;28;20083;-73
2023/01/27 07:00:49;;;;;;;4.13;1.35;;;3.30;99.90;;;;;;5040513;28;20045;-74
2023/01/27 07:03:15;;;;;;;4.28;1.20;;;3.30;99.90;;;;;;5025218;28;20087;-74
2023/01/27 07:05:41;;;;;;;3.80;1.13;;;3.20;99.90;;;;;;5040067;28;20087;-73
2023/01/27 07:08:07;;;;;;;12.80;1.80;;;3.20;99.90;;;;;;5034640;28;20649;-73
2023/01/27 07:10:33;;;;;;;6.25;1.48;;;3.20;99.90;;;;;;5012855;28;20075;-74
2023/01/27 07:13:07;;;;;;;4.43;1.23;;;3.20;99.90;;;;;;5030374;28;21163;-73
2023/01/27 07:15:33;;;;;;;2.65;1.10;;;3.20;99.90;;;;;;5026732;28;20955;-74
2023/01/27 07:18:01;;;;;;;6.53;1.50;;;3.30;99.90;;;;;;5034587;28;20051;-72
2023/01/27 07:20:27;;;;;;;4.60;1.40;;;3.20;99.90;;;;;;5048800;28;20064;-71
2023/01/27 07:22:57;;;;;;;6.07;1.48;;;3.20;99.90;;;;;;5028449;28;20044;-72
2023/01/27 07:25:22;;;;;;;6.10;1.30;;;3.20;99.90;;;;;;5041333;28;20896;-71
2023/01/27 07:27:48;;;;;;;4.93;1.20;;;3.20;99.90;;;;;;5048403;28;20377;-72
2023/01/27 07:30:14;;;;;;;5.50;1.50;;;3.20;99.90;;;;;;5030339;28;20040;-72
2023/01/27 07:32:40;;;;;;;7.32;1.40;;;3.20;99.90;;;;;;5029596;28;20053;-71
2023/01/27 07:35:06;;;;;;;5.38;1.30;;;3.20;99.90;;;;;;5029908;28;20071;-72
2023/01/27 07:37:31;;;;;;;6.80;1.15;;;3.20;99.90;;;;;;5030473;28;20102;-72
2023/01/27 07:40:00;;;;;;;2.30;0.90;;;3.20;99.90;;;;;;5034311;28;20081;-72
2023/01/27 07:42:26;;;;;;;2.95;1.20;;;3.20;99.90;;;;;;5014296;28;20276;-71
2023/01/27 07:44:52;;;;;;;3.22;1.00;;;3.20;99.90;;;;;;5048053;28;20375;-72
2023/01/27 07:47:17;;;;;;;3.70;1.20;;;3.20;99.90;;;;;;5030140;28;20037;-71
2023/01/27 07:49:43;;;;;;;6.80;1.48;;;3.20;99.90;;;;;;5026789;28;20049;-71
2023/01/27 07:52:09;;;;;;;3.33;1.30;;;3.20;99.90;;;;;;5047183;28;20731;-71
2023/01/27 07:54:34;;;;;;;3.70;1.15;;;3.20;99.90;;;;;;5047393;28;20041;-71
2023/01/27 07:57:00;;;;;;;4.65;1.25;;;3.10;99.90;;;;;;5031595;28;20044;-71
2023/01/27 07:59:27;;;;;;;7.82;1.33;;;3.20;99.90;;;;;;5033904;28;20037;-71
2023/01/27 08:01:53;;;;;;;2.30;1.13;;;3.20;99.90;;;;;;5029937;28;20051;-71
2023/01/27 08:04:18;;;;;;;4.45;1.40;;;3.20;99.90;;;;;;5008762;28;20048;-71
2023/01/27 08:06:44;;;;;;;5.03;1.13;;;3.20;99.90;;;;;;5014497;28;20608;-71
2023/01/27 08:09:10;;;;;;;5.22;1.23;;;3.20;99.90;;;;;;5028324;28;20067;-70
2023/01/27 08:11:36;;;;;;;4.97;1.23;;;3.10;99.90;;;;;;5044375;28;20066;-71
2023/01/27 08:14:02;;;;;;;5.80;1.40;;;3.90;99.90;;;;;;5030742;28;20040;-71
2023/01/27 08:16:28;;;;;;;6.13;1.20;;;3.10;99.90;;;;;;5012228;28;20690;-71
2023/01/27 08:18:54;;;;;;;7.20;1.45;;;3.20;99.90;;;;;;5032748;28;21483;-71
2023/01/27 08:21:20;;;;;;;9.18;1.80;;;3.20;99.90;;;;;;5036208;28;20119;-70
2023/01/27 08:23:46;;;;;;;7.35;1.65;;;3.20;99.90;;;;;;5058063;28;20143;-71
2023/01/27 08:26:12;;;;;;;8.65;1.40;;;3.20;99.90;;;;;;5038911;28;20202;-70
2023/01/27 08:28:39;;;;;;;6.35;1.35;;;3.20;99.90;;;;;;5021824;28;20580;-70
2023/01/27 08:31:15;;;;;;;9.55;1.70;;;3.20;99.90;;;;;;5059635;28;20063;-71
2023/01/27 08:33:42;;;;;;;9.48;1.70;;;3.20;99.90;;;;;;5022247;28;20506;-71
2023/01/27 08:36:12;;;;;;;8.77;1.33;;;3.30;99.90;;;;;;5040655;28;20045;-71
2023/01/27 08:38:39;;;;;;;7.45;1.33;;;3.30;99.90;;;;;;5038347;28;20048;-71
2023/01/27 08:41:07;;;;;;;10.20;1.90;;;3.30;99.90;;;;;;5055771;28;20046;-71
2023/01/27 08:43:33;;;;;;;8.20;1.60;;;3.40;99.90;;;;;;5051585;28;20472;-70
2023/01/27 08:45:59;;;;;;;8.23;1.83;;;3.40;99.90;;;;;;5054441;28;20123;-70
2023/01/27 08:48:30;;;;;;;6.97;1.33;;;3.50;99.90;;;;;;5019765;28;20041;-71
2023/01/27 08:50:57;;;;;;;7.93;1.63;;;3.40;99.90;;;;;;5041356;28;20049;-71
2023/01/27 08:53:23;;;;;;;10.75;1.55;;;3.50;99.90;;;;;;5041360;28;20063;-70
2023/01/27 08:55:50;;;;;;;10.48;2.00;;;3.40;99.90;;;;;;5041233;28;20044;-71
2023/01/27 08:58:16;;;;;;;8.23;1.63;;;3.50;99.90;;;;;;5040645;28;20052;-71
2023/01/27 09:00:42;;;;;;;7.60;2.03;;;3.60;99.90;;;;;;5054473;28;20040;-71
2023/01/27 09:03:08;;;;;;;7.30;1.65;;;3.50;99.90;;;;;;5034618;28;20029;-71
2023/01/27 09:05:35;;;;;;;4.40;1.25;;;3.50;99.90;;;;;;5038682;28;20378;-71
2023/01/27 09:08:01;;;;;;;6.97;1.58;;;3.50;99.90;;;;;;5022149;28;20048;-70
2023/01/27 09:10:27;;;;;;;6.18;1.50;;;3.50;99.90;;;;;;5038608;28;20170;-71
2023/01/27 09:12:53;;;;;;;8.55;1.60;;;3.90;99.90;;;;;;5032492;28;20126;-71
2023/01/27 09:15:19;;;;;;;3.83;1.25;;;3.50;99.90;;;;;;5018642;28;20060;-71
2023/01/27 09:17:46;;;;;;;3.60;1.33;;;3.60;99.90;;;;;;5034283;28;20080;-70
2023/01/27 09:20:12;;;;;;;4.40;1.48;;;3.60;99.90;;;;;;5018081;28;20037;-71
2023/01/27 09:22:39;;;;;;;4.75;1.60;;;3.60;99.90;;;;;;5014572;28;20041;-70
2023/01/27 09:25:07;;;;;;;6.35;2.13;;;3.90;99.90;;;;;;5015515;28;20045;-71
2023/01/27 09:27:33;;;;;;;6.18;1.50;;;3.60;99.90;;;;;;5032971;28;20049;-71
2023/01/27 09:29:58;;;;;;;9.02;1.75;;;3.60;99.90;;;;;;5030871;28;20045;-71
2023/01/27 09:32:24;;;;;;;9.50;2.00;;;3.70;99.90;;;;;;5037563;28;20057;-70
2023/01/27 09:34:50;;;;;;;6.18;1.90;;;3.90;99.90;;;;;;5036163;28;20049;-70
2023/01/27 09:37:16;;;;;;;7.25;1.70;;;3.70;99.90;;;;;;5018395;28;21962;-71
2023/01/27 09:39:54;;;;;;;5.40;1.83;;;3.70;99.90;;;;;;5038245;28;20048;-71
2023/01/27 09:42:41;;;;;;;8.38;2.10;;;3.80;99.90;;;;;;5033221;28;20045;-70
2023/01/27 09:45:24;;;;;;;8.82;2.05;;;3.80;99.90;;;;;;5034606;28;20043;-71
2023/01/27 09:48:05;;;;;;;5.55;1.95;;;3.90;99.90;;;;;;5037240;28;20049;-71
2023/01/27 09:50:47;;;;;;;5.23;1.60;;;3.90;99.90;;;;;;5036562;28;20099;-70
2023/01/27 09:53:59;;;;;;;4.28;1.38;;;3.90;99.90;;;;;;5034355;28;20076;-71
2023/01/27 09:56:48;;;;;;;5.57;1.40;;;3.90;99.90;;;;;;4989649;28;20600;-74
2023/01/27 09:59:38;;;;;;;4.65;1.10;;;3.90;99.90;;;;;;5036869;28;20068;-74
2023/01/27 10:02:07;;;;;;;5.90;1.00;;;3.90;99.90;;;;;;5035916;28;20350;-73
2023/01/27 10:04:48;;;;;;;5.57;1.30;;;3.90;99.90;;;;;;5034215;28;20597;-74
2023/01/27 10:07:32;;;;;;;5.25;1.55;;;3.90;99.90;;;;;;5034797;28;20052;-73
2023/01/27 10:10:23;;;;;;;4.40;1.33;;;3.90;99.90;;;;;;5018332;28;20052;-74
2023/01/27 10:12:57;;;;;;;4.40;1.15;;;3.90;99.90;;;;;;5035192;28;20713;-74
2023/01/27 10:15:57;;;;;;;6.32;1.20;;;4.00;99.90;;;;;;5033358;28;20556;-74
2023/01/27 10:18:51;;;;;;;4.55;1.10;;;4.00;99.90;;;;;;5031947;28;20740;-73
2023/01/27 10:21:17;;;;;;;3.40;0.80;;;4.10;99.90;;;;;;5037727;28;20045;-74
2023/01/27 10:24:01;;;;;;;5.40;1.17;;;4.10;99.90;;;;;;5028969;28;20903;-74
2023/01/27 10:26:53;;;;;;;3.10;1.00;;;4.20;99.90;;;;;;5026926;28;20498;-74
2023/01/27 10:29:29;;;;;;;4.30;1.38;;;5.00;99.90;;;;;;5024157;28;20041;-73
2023/01/27 10:32:00;;;;;;;2.63;1.02;;;4.20;99.90;;;;;;5030618;28;20080;-74
2023/01/27 10:34:42;;;;;;;3.13;1.00;;;4.20;99.90;;;;;;5037440;28;20489;-74
2023/01/27 10:37:30;;;;;;;7.65;1.98;;;4.20;99.90;;;;;;5031307;28;20064;-73
2023/01/27 10:39:59;;;;;;;4.43;1.20;;;4.20;99.90;;;;;;5011300;28;20064;-73
2023/01/27 10:42:50;;;;;;;3.80;1.08;;;4.20;99.90;;;;;;5032833;28;20080;-74
2023/01/27 10:45:41;;;;;;;3.67;1.17;;;4.40;99.90;;;;;;5028892;28;20046;-74
2023/01/27 10:48:55;;;;;;;4.38;0.93;;;4.20;99.90;;;;;;5036767;28;20044;-74
2023/01/27 10:51:48;;;;;;;2.72;0.80;;;4.20;99.90;;;;;;5006563;28;20081;-74
2023/01/27 10:54:30;;;;;;;1.95;0.80;;;4.20;99.90;;;;;;5026978;28;20644;-74
2023/01/27 10:57:01;;;;;;;;;;;4.10;99.90;;;;;;5037889;28;20071;-73
2023/01/27 10:59:36;;;;;;;2.37;0.73;;;4.10;99.90;;;;;;5032648;28;20578;-74
2023/01/27 11:02:16;;;;;;;2.28;0.80;;;4.10;99.90;;;;;;5016786;28;20283;-73
2023/01/27 11:04:50;;;;;;;1.05;0.70;;;4.10;99.90;;;;;;5015618;28;20498;-74
2023/01/27 11:07:19;;;;;;;1.88;0.90;;;4.10;99.90;;;;;;5021747;28;20049;-74
2023/01/27 11:09:58;;;;;;;1.65;1.10;;;4.00;99.90;;;;;;5041331;28;20048;-74
2023/01/27 11:12:30;;;;;;;4.05;1.25;;;4.00;99.90;;;;;;5021442;28;20045;-74
2023/01/27 11:14:58;;;;;;;2.47;1.20;;;4.00;99.90;;;;;;5019467;28;20044;-74
2023/01/27 11:17:43;;;;;;;3.40;1.10;;;4.00;99.90;;;;;;5038242;28;20037;-74
2023/01/27 11:20:30;;;;;;;3.80;1.10;;;4.00;99.90;;;;;;5036066;28;20049;-73
2023/01/27 11:23:20;;;;;;;2.80;1.10;;;4.00;99.90;;;;;;5015571;28;20477;-73
2023/01/27 11:26:10;;;;;;;3.25;1.20;;;4.00;99.90;;;;;;5017188;28;20037;-73
2023/01/27 11:29:14;;;;;;;2.17;1.30;;;4.00;99.90;;;;;;5034608;28;20060;-74
2023/01/27 11:31:46;;;;;;;5.07;1.67;;;4.00;99.90;;;;;;5035372;28;20047;-74
2023/01/27 11:34:18;;;;;;;3.78;1.50;;;4.00;99.90;;;;;;5037311;28;20095;-74
2023/01/27 11:36:44;;;;;;;4.32;1.85;;;4.60;99.90;;;;;;5035658;28;20505;-74
2023/01/27 11:39:11;;;;;;;4.93;2.03;;;4.00;99.90;;;;;;5033456;28;20111;-74
2023/01/27 11:41:41;;;;;;;4.35;2.28;;;3.90;99.90;;;;;;5035301;28;20045;-74
2023/01/27 11:44:19;;;;;;;4.45;2.30;;;3.90;99.90;;;;;;5027479;28;20103;-75
2023/01/27 11:46:47;;;;;;;6.15;2.83;;;4.20;99.90;;;;;;5032870;28;20057;-74
2023/01/27 11:49:25;;;;;;;5.22;2.40;;;3.80;99.90;;;;;;5035087;28;20128;-74
2023/01/27 11:51:58;;;;;;;5.95;2.28;;;3.80;99.90;;;;;;5026036;28;20049;-73
2023/01/27 11:54:28;;;;;;;7.63;2.90;;;3.80;99.90;;;;;;5021974;28;20044;-74
2023/01/27 11:56:53;;;;;;;7.38;2.97;;;4.30;99.90;;;;;;5013568;28;20060;-74
2023/01/27 11:59:24;;;;;;;5.65;2.75;;;4.40;99.90;;;;;;5034550;28;20394;-74
2023/01/27 12:02:17;;;;;;;8.85;2.95;;;3.80;99.90;;;;;;5013262;28;20033;-74
2023/01/27 12:05:13;;;;;;;4.60;2.75;;;3.70;99.90;;;;;;5026698;28;20057;-74
2023/01/27 12:07:55;;;;;;;4.85;2.50;;;3.70;99.90;;;;;;5029608;28;20041;-74
2023/01/27 12:10:28;;;;;;;10.40;3.15;;;3.70;99.90;;;;;;5034168;28;20056;-74
2023/01/27 12:12:56;;;;;;;6.90;3.50;;;3.70;99.90;;;;;;5042906;28;20641;-74
2023/01/27 12:15:26;;;;;;;5.38;3.00;;;3.70;99.90;;;;;;5035332;28;20044;-74
2023/01/27 12:17:59;;;;;;;7.57;2.80;;;3.70;99.90;;;;;;5026917;28;20512;-73
2023/01/27 12:20:40;;;;;;;5.30;3.05;;;3.70;99.90;;;;;;5013817;28;20044;-73
2023/01/27 12:23:21;;;;;;;6.60;3.13;;;3.70;99.90;;;;;;5014026;28;20053;-74
2023/01/27 12:26:08;;;;;;;6.88;3.15;;;3.70;99.90;;;;;;5032779;28;20048;-73
2023/01/27 12:28:45;;;;;;;5.53;3.00;;;3.70;99.90;;;;;;5036052;28;20098;-74
2023/01/27 12:31:23;;;;;;;5.10;2.83;;;3.70;99.90;;;;;;5031852;28;20088;-74
2023/01/27 12:34:02;;;;;;;10.60;4.13;;;3.60;99.90;;;;;;5025030;28;20044;-74
2023/01/27 12:36:35;;;;;;;7.90;3.70;;;3.60;99.90;;;;;;5031581;28;20379;-73
2023/01/27 12:39:01;;;;;;;7.00;3.30;;;3.60;99.90;;;;;;5028073;28;20041;-74
2023/01/27 12:41:30;;;;;;;5.88;3.38;;;3.60;99.90;;;;;;5027613;28;20053;-71
2023/01/27 12:44:08;;;;;;;7.05;4.03;;;4.30;99.90;;;;;;5035081;28;20041;-71
2023/01/27 12:46:34;;;;;;;7.10;3.40;;;3.60;99.90;;;;;;5033414;28;20159;-71
2023/01/27 12:49:13;;;;;;;6.40;3.13;;;3.60;99.90;;;;;;5035501;28;20517;-71
2023/01/27 12:51:49;;;;;;;8.30;3.88;;;3.60;99.90;;;;;;5034696;28;20045;-71
2023/01/27 12:54:27;;;;;;;7.20;4.10;;;3.60;99.90;;;;;;5036164;28;20068;-71
2023/01/27 12:56:59;;;;;;;5.05;3.38;;;3.60;99.90;;;;;;5033224;28;20075;-70
2023/01/27 12:59:25;;;;;;;6.00;3.78;;;3.60;99.90;;;;;;5018831;28;20143;-71
2023/01/27 13:02:10;;;;;;;6.25;3.63;;;3.60;99.90;;;;;;5037141;28;20052;-71
2023/01/27 13:04:37;;;;;;;7.22;4.10;;;3.60;99.90;;;;;;5033625;28;20040;-71
2023/01/27 13:07:07;;;;;;;6.57;3.60;;;3.60;99.90;;;;;;5019444;28;20128;-70
2023/01/27 13:09:45;;;;;;;5.95;3.72;;;3.60;99.90;;;;;;5019013;28;20090;-71
2023/01/27 13:12:28;;;;;;;6.05;3.55;;;3.50;99.90;;;;;;5017299;28;20081;-71
2023/01/27 13:15:13;;;;;;;5.53;3.70;;;3.50;99.90;;;;;;5035042;28;20056;-71
2023/01/27 13:17:50;;;;;;;6.32;3.63;;;3.60;99.90;;;;;;5035702;28;20131;-70
2023/01/27 13:20:38;;;;;;;5.85;3.80;;;4.20;99.90;;;;;;5037724;28;20056;-71
2023/01/27 13:23:21;;;;;;;6.50;3.78;;;3.50;99.90;;;;;;5034887;28;20060;-71
2023/01/27 13:25:53;;;;;;;6.72;3.85;;;3.50;99.90;;;;;;5034789;28;20045;-71
2023/01/27 13:28:30;;;;;;;6.07;3.67;;;3.50;99.90;;;;;;5035590;28;21250;-70
2023/01/27 13:31:07;;;;;;;6.53;3.63;;;3.90;99.90;;;;;;5032383;28;20057;-71
2023/01/27 13:33:46;;;;;;;5.90;3.40;;;3.50;99.90;;;;;;5017205;28;20044;-71
2023/01/27 13:36:39;;;;;;;7.32;3.75;;;3.50;99.90;;;;;;5036422;28;20559;-71
2023/01/27 13:39:17;;;;;;;5.82;3.60;;;3.50;99.90;;;;;;5034356;28;20048;-71
2023/01/27 13:42:09;;;;;;;7.43;3.90;;;3.50;99.90;;;;;;5034298;28;20501;-71
2023/01/27 13:44:49;;;;;;;6.18;3.58;;;3.60;99.90;;;;;;5021360;28;21313;-71